sensor_id;sensor_type;location;lat;lon;timestamp;temperature;humidity
5392;DHT22;2719;53.624;9.786;2022-12-07T00:01:05;4.60;99.90
5392;DHT22;2719;53.624;9.786;2022-12-07T00:03:32;4.60;99.90
5392;DHT22;2719;53.624;9.786;2022-12-07T00:05:59;4.70;99.90
5392;DHT22;2719;53.624;9.786;2022-12-07T00:08:26;4.60;99.90
5392;DHT22;2719;53.624;9.786;2022-12-07T00:10:54;4.60;99.90
5392;DHT22;2719;53.624;9.786;2022-12-07T00:13:20;4.60;99.90
5392;DHT22;2719;53.624;9.786;2022-12-07T00:15:47;4.60;99.90
5392;DHT22;2719;53.624;9.786;2022-12-07T00:18:13;4.70;99.90
5392;DHT22;2719;53.624;9.786;2022-12-07T00:20:40;4.70;99.90
5392;DHT22;2719;53.624;9.786;2022-12-07T00:23:07;4.70;99.90
5392;DHT22;2719;53.624;9.786;2022-12-07T00:25:33;4.70;99.90
5392;DHT22;2719;53.624;9.786;2022-12-07T00:28:01;4.50;99.90
5392;DHT22;2719;53.624;9.786;2022-12-07T00:30:28;4.60;99.90
5392;DHT22;2719;53.624;9.786;2022-12-07T00:32:55;4.50;99.90
5392;DHT22;2719;53.624;9.786;2022-12-07T00:35:21;4.50;99.90
5392;DHT22;2719;53.624;9.786;2022-12-07T00:37:48;4.50;99.90
5392;DHT22;2719;53.624;9.786;2022-12-07T00:40:15;4.50;99.90
5392;DHT22;2719;53.624;9.786;2022-12-07T00:42:41;4.50;99.90
5392;DHT22;2719;53.624;9.786;2022-12-07T00:45:10;4.50;99.90
5392;DHT22;2719;53.624;9.786;2022-12-07T00:47:36;4.30;99.90
5392;DHT22;2719;53.624;9.786;2022-12-07T00:50:04;4.40;99.90
5392;DHT22;2719;53.624;9.786;2022-12-07T00:52:31;4.40;99.90
5392;DHT22;2719;53.624;9.786;2022-12-07T00:54:58;4.40;99.90
5392;DHT22;2719;53.624;9.786;2022-12-07T00:57:24;4.40;99.90
5392;DHT22;2719;53.624;9.786;2022-12-07T00:59:51;4.30;99.90
5392;DHT22;2719;53.624;9.786;2022-12-07T01:02:21;4.30;99.90
5392;DHT22;2719;53.624;9.786;2022-12-07T01:04:48;4.30;99.90
5392;DHT22;2719;53.624;9.786;2022-12-07T01:07:15;4.30;99.90
5392;DHT22;2719;53.624;9.786;2022-12-07T01:09:42;4.30;99.90
5392;DHT22;2719;53.624;9.786;2022-12-07T01:12:08;4.20;99.90
5392;DHT22;2719;53.624;9.786;2022-12-07T01:14:35;4.30;99.90
5392;DHT22;2719;53.624;9.786;2022-12-07T01:17:02;4.20;99.90
5392;DHT22;2719;53.624;9.786;2022-12-07T01:19:30;4.20;99.90
5392;DHT22;2719;53.624;9.786;2022-12-07T01:21:57;4.20;99.90
5392;DHT22;2719;53.624;9.786;2022-12-07T01:24:23;4.20;99.90
5392;DHT22;2719;53.624;9.786;2022-12-07T01:26:50;4.20;99.90
5392;DHT22;2719;53.624;9.786;2022-12-07T01:29:16;4.30;99.90
5392;DHT22;2719;53.624;9.786;2022-12-07T01:31:43;4.30;99.90
5392;DHT22;2719;53.624;9.786;2022-12-07T01:34:10;4.20;99.90
5392;DHT22;2719;53.624;9.786;2022-12-07T01:36:38;4.30;99.90
5392;DHT22;2719;53.624;9.786;2022-12-07T01:39:06;4.20;99.90
5392;DHT22;2719;53.624;9.786;2022-12-07T01:41:34;4.20;99.90
5392;DHT22;2719;53.624;9.786;2022-12-07T01:44:11;4.30;99.90
5392;DHT22;2719;53.624;9.786;2022-12-07T01:46:38;4.30;99.90
5392;DHT22;2719;53.624;9.786;2022-12-07T01:49:08;4.30;99.90
5392;DHT22;2719;53.624;9.786;2022-12-07T01:51:38;4.20;99.90
5392;DHT22;2719;53.624;9.786;2022-12-07T01:54:07;4.20;99.90
5392;DHT22;2719;53.624;9.786;2022-12-07T01:56:34;4.20;99.90
5392;DHT22;2719;53.624;9.786;2022-12-07T01:59:02;4.20;99.90
5392;DHT22;2719;53.624;9.786;2022-12-07T02:01:29;4.30;99.90
5392;DHT22;2719;53.624;9.786;2022-12-07T02:03:56;4.20;99.90
5392;DHT22;2719;53.624;9.786;2022-12-07T02:06:24;4.30;99.90
5392;DHT22;2719;53.624;9.786;2022-12-07T02:08:53;4.30;99.90
5392;DHT22;2719;53.624;9.786;2022-12-07T02:11:20;4.20;99.90
5392;DHT22;2719;53.624;9.786;2022-12-07T02:13:47;4.20;99.90
5392;DHT22;2719;53.624;9.786;2022-12-07T02:16:25;4.20;99.90
5392;DHT22;2719;53.624;9.786;2022-12-07T02:19:11;4.20;99.90
5392;DHT22;2719;53.624;9.786;2022-12-07T02:21:46;4.20;99.90
5392;DHT22;2719;53.624;9.786;2022-12-07T02:24:30;4.20;99.90
5392;DHT22;2719;53.624;9.786;2022-12-07T02:27:14;4.30;99.90
5392;DHT22;2719;53.624;9.786;2022-12-07T02:29:50;4.30;99.90
5392;DHT22;2719;53.624;9.786;2022-12-07T02:32:25;4.30;99.90
5392;DHT22;2719;53.624;9.786;2022-12-07T02:34:56;4.30;99.90
5392;DHT22;2719;53.624;9.786;2022-12-07T02:37:37;4.20;99.90
5392;DHT22;2719;53.624;9.786;2022-12-07T02:40:10;4.20;99.90
5392;DHT22;2719;53.624;9.786;2022-12-07T02:42:41;4.20;99.90
5392;DHT22;2719;53.624;9.786;2022-12-07T02:45:14;4.30;99.90
5392;DHT22;2719;53.624;9.786;2022-12-07T02:47:43;4.30;99.90
5392;DHT22;2719;53.624;9.786;2022-12-07T02:50:11;4.20;99.90
5392;DHT22;2719;53.624;9.786;2022-12-07T02:52:38;4.30;99.90
5392;DHT22;2719;53.624;9.786;2022-12-07T02:55:06;4.20;99.90
5392;DHT22;2719;53.624;9.786;2022-12-07T02:57:45;4.20;99.90
5392;DHT22;2719;53.624;9.786;2022-12-07T03:00:18;4.20;99.90
5392;DHT22;2719;53.624;9.786;2022-12-07T03:02:52;4.30;99.90
5392;DHT22;2719;53.624;9.786;2022-12-07T03:05:39;4.30;99.90
5392;DHT22;2719;53.624;9.786;2022-12-07T03:08:15;4.30;99.90
5392;DHT22;2719;53.624;9.786;2022-12-07T03:10:50;4.20;99.90
5392;DHT22;2719;53.624;9.786;2022-12-07T03:13:24;4.20;99.90
5392;DHT22;2719;53.624;9.786;2022-12-07T03:15:58;4.20;99.90
5392;DHT22;2719;53.624;9.786;2022-12-07T03:18:31;4.20;99.90
5392;DHT22;2719;53.624;9.786;2022-12-07T03:21:01;4.20;99.90
5392;DHT22;2719;53.624;9.786;2022-12-07T03:23:33;4.20;99.90
5392;DHT22;2719;53.624;9.786;2022-12-07T03:26:03;4.20;99.90
5392;DHT22;2719;53.624;9.786;2022-12-07T03:28:35;4.20;99.90
5392;DHT22;2719;53.624;9.786;2022-12-07T03:31:06;4.20;99.90
5392;DHT22;2719;53.624;9.786;2022-12-07T03:33:41;4.20;99.90
5392;DHT22;2719;53.624;9.786;2022-12-07T03:36:14;4.30;99.90
5392;DHT22;2719;53.624;9.786;2022-12-07T03:38:46;4.30;99.90
5392;DHT22;2719;53.624;9.786;2022-12-07T03:41:17;4.40;99.90
5392;DHT22;2719;53.624;9.786;2022-12-07T03:43:46;4.20;99.90
5392;DHT22;2719;53.624;9.786;2022-12-07T03:46:18;4.20;99.90
5392;DHT22;2719;53.624;9.786;2022-12-07T03:48:54;4.20;99.90
5392;DHT22;2719;53.624;9.786;2022-12-07T03:51:25;4.30;99.90
5392;DHT22;2719;53.624;9.786;2022-12-07T03:53:58;4.20;99.90
5392;DHT22;2719;53.624;9.786;2022-12-07T03:56:27;4.20;99.90
5392;DHT22;2719;53.624;9.786;2022-12-07T03:58:54;4.20;99.90
5392;DHT22;2719;53.624;9.786;2022-12-07T04:01:22;4.20;99.90
5392;DHT22;2719;53.624;9.786;2022-12-07T04:03:49;4.30;99.90
5392;DHT22;2719;53.624;9.786;2022-12-07T04:06:16;4.20;99.90
5392;DHT22;2719;53.624;9.786;2022-12-07T04:08:43;4.20;99.90
5392;DHT22;2719;53.624;9.786;2022-12-07T04:11:09;4.20;99.90
5392;DHT22;2719;53.624;9.786;2022-12-07T04:13:36;4.40;99.90
5392;DHT22;2719;53.624;9.786;2022-12-07T04:16:17;4.30;99.90
5392;DHT22;2719;53.624;9.786;2022-12-07T04:18:45;4.40;99.90
5392;DHT22;2719;53.624;9.786;2022-12-07T04:21:11;4.30;99.90
5392;DHT22;2719;53.624;9.786;2022-12-07T04:23:38;4.30;99.90
5392;DHT22;2719;53.624;9.786;2022-12-07T04:26:05;4.40;99.90
5392;DHT22;2719;53.624;9.786;2022-12-07T04:28:31;4.40;99.90
5392;DHT22;2719;53.624;9.786;2022-12-07T04:30:58;4.40;99.90
5392;DHT22;2719;53.624;9.786;2022-12-07T04:33:25;4.40;99.90
5392;DHT22;2719;53.624;9.786;2022-12-07T04:35:53;4.30;99.90
5392;DHT22;2719;53.624;9.786;2022-12-07T04:38:19;4.30;99.90
5392;DHT22;2719;53.624;9.786;2022-12-07T04:40:46;4.20;99.90
5392;DHT22;2719;53.624;9.786;2022-12-07T04:43:13;4.20;99.90
5392;DHT22;2719;53.624;9.786;2022-12-07T04:45:39;4.30;99.90
5392;DHT22;2719;53.624;9.786;2022-12-07T04:48:06;4.20;99.90
5392;DHT22;2719;53.624;9.786;2022-12-07T04:50:33;4.20;99.90
5392;DHT22;2719;53.624;9.786;2022-12-07T04:53:04;4.20;99.90
5392;DHT22;2719;53.624;9.786;2022-12-07T04:55:31;4.20;99.90
5392;DHT22;2719;53.624;9.786;2022-12-07T04:57:58;4.30;99.90
5392;DHT22;2719;53.624;9.786;2022-12-07T05:00:25;4.30;99.90
5392;DHT22;2719;53.624;9.786;2022-12-07T05:02:51;4.20;99.90
5392;DHT22;2719;53.624;9.786;2022-12-07T05:05:18;4.10;99.90
5392;DHT22;2719;53.624;9.786;2022-12-07T05:07:45;4.10;99.90
5392;DHT22;2719;53.624;9.786;2022-12-07T05:10:14;4.20;99.90
5392;DHT22;2719;53.624;9.786;2022-12-07T05:12:41;4.10;99.90
5392;DHT22;2719;53.624;9.786;2022-12-07T05:15:08;4.10;99.90
5392;DHT22;2719;53.624;9.786;2022-12-07T05:17:35;4.00;99.90
5392;DHT22;2719;53.624;9.786;2022-12-07T05:20:02;4.00;99.90
5392;DHT22;2719;53.624;9.786;2022-12-07T05:22:29;4.00;99.90
5392;DHT22;2719;53.624;9.786;2022-12-07T05:24:56;4.00;99.90
5392;DHT22;2719;53.624;9.786;2022-12-07T05:27:24;4.00;99.90
5392;DHT22;2719;53.624;9.786;2022-12-07T05:29:51;4.00;99.90
5392;DHT22;2719;53.624;9.786;2022-12-07T05:32:17;4.00;99.90
5392;DHT22;2719;53.624;9.786;2022-12-07T05:34:44;3.90;99.90
5392;DHT22;2719;53.624;9.786;2022-12-07T05:37:11;3.90;99.90
5392;DHT22;2719;53.624;9.786;2022-12-07T05:39:37;3.80;99.90
5392;DHT22;2719;53.624;9.786;2022-12-07T05:42:06;3.80;99.90
5392;DHT22;2719;53.624;9.786;2022-12-07T05:44:41;3.90;99.90
5392;DHT22;2719;53.624;9.786;2022-12-07T05:47:08;3.90;99.90
5392;DHT22;2719;53.624;9.786;2022-12-07T05:49:35;3.70;99.90
5392;DHT22;2719;53.624;9.786;2022-12-07T05:52:02;3.80;99.90
5392;DHT22;2719;53.624;9.786;2022-12-07T05:54:29;3.80;99.90
5392;DHT22;2719;53.624;9.786;2022-12-07T05:56:57;3.80;99.90
5392;DHT22;2719;53.624;9.786;2022-12-07T05:59:25;3.80;99.90
5392;DHT22;2719;53.624;9.786;2022-12-07T06:01:55;3.70;99.90
5392;DHT22;2719;53.624;9.786;2022-12-07T06:04:23;3.70;99.90
5392;DHT22;2719;53.624;9.786;2022-12-07T06:06:50;3.70;99.90
5392;DHT22;2719;53.624;9.786;2022-12-07T06:09:17;3.60;99.90
5392;DHT22;2719;53.624;9.786;2022-12-07T06:11:44;3.60;99.90
5392;DHT22;2719;53.624;9.786;2022-12-07T06:14:28;3.60;99.90
5392;DHT22;2719;53.624;9.786;2022-12-07T06:16:56;3.50;99.90
5392;DHT22;2719;53.624;9.786;2022-12-07T06:19:23;3.50;99.90
5392;DHT22;2719;53.624;9.786;2022-12-07T06:21:50;3.60;99.90
5392;DHT22;2719;53.624;9.786;2022-12-07T06:24:17;3.60;99.90
5392;DHT22;2719;53.624;9.786;2022-12-07T06:26:44;3.60;99.90
5392;DHT22;2719;53.624;9.786;2022-12-07T06:29:11;3.50;99.90
5392;DHT22;2719;53.624;9.786;2022-12-07T06:31:38;3.60;99.90
5392;DHT22;2719;53.624;9.786;2022-12-07T06:34:09;3.60;99.90
5392;DHT22;2719;53.624;9.786;2022-12-07T06:36:37;3.50;99.90
5392;DHT22;2719;53.624;9.786;2022-12-07T06:39:04;3.50;99.90
5392;DHT22;2719;53.624;9.786;2022-12-07T06:41:31;3.50;99.90
5392;DHT22;2719;53.624;9.786;2022-12-07T06:43:58;3.40;99.90
5392;DHT22;2719;53.624;9.786;2022-12-07T06:46:25;3.40;99.90
5392;DHT22;2719;53.624;9.786;2022-12-07T06:48:51;3.30;99.90
5392;DHT22;2719;53.624;9.786;2022-12-07T06:51:19;3.40;99.90
5392;DHT22;2719;53.624;9.786;2022-12-07T06:53:46;3.40;99.90
5392;DHT22;2719;53.624;9.786;2022-12-07T06:56:13;3.40;99.90
5392;DHT22;2719;53.624;9.786;2022-12-07T06:58:40;3.50;99.90
5392;DHT22;2719;53.624;9.786;2022-12-07T07:01:09;3.40;99.90
5392;DHT22;2719;53.624;9.786;2022-12-07T07:03:36;3.40;99.90
5392;DHT22;2719;53.624;9.786;2022-12-07T07:06:03;3.30;99.90
5392;DHT22;2719;53.624;9.786;2022-12-07T07:08:31;3.40;99.90
5392;DHT22;2719;53.624;9.786;2022-12-07T07:10:58;3.30;99.90
5392;DHT22;2719;53.624;9.786;2022-12-07T07:13:25;3.30;99.90
5392;DHT22;2719;53.624;9.786;2022-12-07T07:15:51;3.40;99.90
5392;DHT22;2719;53.624;9.786;2022-12-07T07:18:18;3.50;99.90
5392;DHT22;2719;53.624;9.786;2022-12-07T07:20:44;3.50;99.90
5392;DHT22;2719;53.624;9.786;2022-12-07T07:23:11;3.40;99.90
5392;DHT22;2719;53.624;9.786;2022-12-07T07:25:39;3.40;99.90
5392;DHT22;2719;53.624;9.786;2022-12-07T07:28:06;3.40;99.90
5392;DHT22;2719;53.624;9.786;2022-12-07T07:30:33;3.50;99.90
5392;DHT22;2719;53.624;9.786;2022-12-07T07:33:00;3.40;99.90
5392;DHT22;2719;53.624;9.786;2022-12-07T07:35:28;3.40;99.90
5392;DHT22;2719;53.624;9.786;2022-12-07T07:37:56;3.40;99.90
5392;DHT22;2719;53.624;9.786;2022-12-07T07:40:23;3.50;99.90
5392;DHT22;2719;53.624;9.786;2022-12-07T07:42:52;3.50;99.90
5392;DHT22;2719;53.624;9.786;2022-12-07T07:45:20;3.40;99.90
5392;DHT22;2719;53.624;9.786;2022-12-07T07:47:47;3.50;99.90
5392;DHT22;2719;53.624;9.786;2022-12-07T07:50:14;3.50;99.90
5392;DHT22;2719;53.624;9.786;2022-12-07T07:52:41;3.50;99.90
5392;DHT22;2719;53.624;9.786;2022-12-07T07:55:08;3.50;99.90
5392;DHT22;2719;53.624;9.786;2022-12-07T07:57:35;3.50;99.90
5392;DHT22;2719;53.624;9.786;2022-12-07T08:00:06;3.50;99.90
5392;DHT22;2719;53.624;9.786;2022-12-07T08:02:33;3.50;99.90
5392;DHT22;2719;53.624;9.786;2022-12-07T08:05:00;3.40;99.90
5392;DHT22;2719;53.624;9.786;2022-12-07T08:07:27;3.40;99.90
5392;DHT22;2719;53.624;9.786;2022-12-07T08:09:54;3.60;99.90
5392;DHT22;2719;53.624;9.786;2022-12-07T08:12:21;3.50;99.90
5392;DHT22;2719;53.624;9.786;2022-12-07T08:14:47;3.50;99.90
5392;DHT22;2719;53.624;9.786;2022-12-07T08:17:15;3.40;99.90
5392;DHT22;2719;53.624;9.786;2022-12-07T08:19:42;3.40;99.90
5392;DHT22;2719;53.624;9.786;2022-12-07T08:22:09;3.40;99.90
5392;DHT22;2719;53.624;9.786;2022-12-07T08:24:36;3.30;99.90
5392;DHT22;2719;53.624;9.786;2022-12-07T08:27:03;3.30;99.90
5392;DHT22;2719;53.624;9.786;2022-12-07T08:29:30;3.40;99.90
5392;DHT22;2719;53.624;9.786;2022-12-07T08:31:56;3.50;99.90
5392;DHT22;2719;53.624;9.786;2022-12-07T08:34:24;3.50;99.90
5392;DHT22;2719;53.624;9.786;2022-12-07T08:36:51;3.60;99.90
5392;DHT22;2719;53.624;9.786;2022-12-07T08:39:18;3.50;99.90
5392;DHT22;2719;53.624;9.786;2022-12-07T08:41:44;3.50;99.90
5392;DHT22;2719;53.624;9.786;2022-12-07T08:44:11;3.50;99.90
5392;DHT22;2719;53.624;9.786;2022-12-07T08:46:40;3.50;99.90
5392;DHT22;2719;53.624;9.786;2022-12-07T08:49:11;3.50;99.90
5392;DHT22;2719;53.624;9.786;2022-12-07T08:51:40;3.50;99.90
5392;DHT22;2719;53.624;9.786;2022-12-07T08:54:10;3.50;99.90
5392;DHT22;2719;53.624;9.786;2022-12-07T08:56:38;3.60;99.90
5392;DHT22;2719;53.624;9.786;2022-12-07T08:59:05;3.70;99.90
5392;DHT22;2719;53.624;9.786;2022-12-07T09:01:32;3.70;99.90
5392;DHT22;2719;53.624;9.786;2022-12-07T09:03:59;3.70;99.90
5392;DHT22;2719;53.624;9.786;2022-12-07T09:06:26;3.70;99.90
5392;DHT22;2719;53.624;9.786;2022-12-07T09:08:57;3.70;99.90
5392;DHT22;2719;53.624;9.786;2022-12-07T09:11:25;3.70;99.90
5392;DHT22;2719;53.624;9.786;2022-12-07T09:13:52;3.80;99.90
5392;DHT22;2719;53.624;9.786;2022-12-07T09:16:18;3.80;99.90
5392;DHT22;2719;53.624;9.786;2022-12-07T09:18:45;3.70;99.90
5392;DHT22;2719;53.624;9.786;2022-12-07T09:21:12;3.70;99.90
5392;DHT22;2719;53.624;9.786;2022-12-07T09:23:38;3.70;99.90
5392;DHT22;2719;53.624;9.786;2022-12-07T09:26:08;3.70;99.90
5392;DHT22;2719;53.624;9.786;2022-12-07T09:28:35;3.80;99.90
5392;DHT22;2719;53.624;9.786;2022-12-07T09:31:03;3.80;99.90
5392;DHT22;2719;53.624;9.786;2022-12-07T09:33:29;3.70;99.90
5392;DHT22;2719;53.624;9.786;2022-12-07T09:35:56;3.70;99.90
5392;DHT22;2719;53.624;9.786;2022-12-07T09:38:23;3.80;99.90
5392;DHT22;2719;53.624;9.786;2022-12-07T09:40:53;3.80;99.90
5392;DHT22;2719;53.624;9.786;2022-12-07T09:43:23;3.90;99.90
5392;DHT22;2719;53.624;9.786;2022-12-07T09:45:52;3.90;99.90
5392;DHT22;2719;53.624;9.786;2022-12-07T09:48:21;3.90;99.90
5392;DHT22;2719;53.624;9.786;2022-12-07T09:50:49;4.00;99.90
5392;DHT22;2719;53.624;9.786;2022-12-07T09:53:23;3.90;99.90
5392;DHT22;2719;53.624;9.786;2022-12-07T09:55:51;4.10;99.90
5392;DHT22;2719;53.624;9.786;2022-12-07T09:58:22;4.10;99.90
5392;DHT22;2719;53.624;9.786;2022-12-07T10:00:50;4.10;99.90
5392;DHT22;2719;53.624;9.786;2022-12-07T10:03:19;4.10;99.90
5392;DHT22;2719;53.624;9.786;2022-12-07T10:05:49;4.20;99.90
5392;DHT22;2719;53.624;9.786;2022-12-07T10:08:16;4.10;99.90
5392;DHT22;2719;53.624;9.786;2022-12-07T10:10:44;4.10;99.90
5392;DHT22;2719;53.624;9.786;2022-12-07T10:13:13;4.10;99.90
5392;DHT22;2719;53.624;9.786;2022-12-07T10:15:48;4.10;99.90
5392;DHT22;2719;53.624;9.786;2022-12-07T10:18:18;4.10;99.90
5392;DHT22;2719;53.624;9.786;2022-12-07T10:20:46;4.10;99.90
5392;DHT22;2719;53.624;9.786;2022-12-07T10:23:15;4.10;99.90
5392;DHT22;2719;53.624;9.786;2022-12-07T10:25:42;4.10;99.90
5392;DHT22;2719;53.624;9.786;2022-12-07T10:28:13;4.20;99.90
5392;DHT22;2719;53.624;9.786;2022-12-07T10:30:54;4.20;99.90
5392;DHT22;2719;53.624;9.786;2022-12-07T10:33:34;4.30;99.90
5392;DHT22;2719;53.624;9.786;2022-12-07T10:36:14;4.30;99.90
5392;DHT22;2719;53.624;9.786;2022-12-07T10:38:46;4.30;99.90
5392;DHT22;2719;53.624;9.786;2022-12-07T10:41:12;4.20;99.90
5392;DHT22;2719;53.624;9.786;2022-12-07T10:43:47;4.40;99.90
5392;DHT22;2719;53.624;9.786;2022-12-07T10:49:38;4.40;99.90
5392;DHT22;2719;53.624;9.786;2022-12-07T10:52:13;4.40;99.90
5392;DHT22;2719;53.624;9.786;2022-12-07T10:54:51;4.40;99.90
5392;DHT22;2719;53.624;9.786;2022-12-07T10:57:40;4.50;99.90
5392;DHT22;2719;53.624;9.786;2022-12-07T11:00:14;4.60;99.90
5392;DHT22;2719;53.624;9.786;2022-12-07T11:02:57;4.60;99.90
5392;DHT22;2719;53.624;9.786;2022-12-07T11:05:29;4.70;99.90
5392;DHT22;2719;53.624;9.786;2022-12-07T11:08:04;4.70;99.90
5392;DHT22;2719;53.624;9.786;2022-12-07T11:10:39;4.70;99.90
5392;DHT22;2719;53.624;9.786;2022-12-07T11:13:21;4.70;99.90
5392;DHT22;2719;53.624;9.786;2022-12-07T11:16:00;4.80;99.90
5392;DHT22;2719;53.624;9.786;2022-12-07T11:18:32;4.80;99.90
5392;DHT22;2719;53.624;9.786;2022-12-07T11:21:10;4.70;99.90
5392;DHT22;2719;53.624;9.786;2022-12-07T11:23:46;4.80;99.90
5392;DHT22;2719;53.624;9.786;2022-12-07T11:26:25;4.80;99.90
5392;DHT22;2719;53.624;9.786;2022-12-07T11:29:07;5.00;99.90
5392;DHT22;2719;53.624;9.786;2022-12-07T11:31:53;4.90;99.90
5392;DHT22;2719;53.624;9.786;2022-12-07T11:34:31;5.00;99.90
5392;DHT22;2719;53.624;9.786;2022-12-07T11:37:05;5.00;99.90
5392;DHT22;2719;53.624;9.786;2022-12-07T11:39:37;5.00;99.90
5392;DHT22;2719;53.624;9.786;2022-12-07T11:42:10;5.00;99.90
5392;DHT22;2719;53.624;9.786;2022-12-07T11:44:47;5.00;99.90
5392;DHT22;2719;53.624;9.786;2022-12-07T11:47:20;4.90;99.90
5392;DHT22;2719;53.624;9.786;2022-12-07T11:49:54;5.00;99.90
5392;DHT22;2719;53.624;9.786;2022-12-07T11:52:27;4.90;99.90
5392;DHT22;2719;53.624;9.786;2022-12-07T11:54:58;4.90;99.90
5392;DHT22;2719;53.624;9.786;2022-12-07T11:57:33;5.00;99.90
5392;DHT22;2719;53.624;9.786;2022-12-07T12:00:04;5.10;99.90
5392;DHT22;2719;53.624;9.786;2022-12-07T12:02:36;5.10;99.90
5392;DHT22;2719;53.624;9.786;2022-12-07T12:05:13;5.20;99.90
5392;DHT22;2719;53.624;9.786;2022-12-07T12:07:43;5.20;99.90
5392;DHT22;2719;53.624;9.786;2022-12-07T12:10:18;5.20;99.90
5392;DHT22;2719;53.624;9.786;2022-12-07T12:13:04;5.20;99.90
5392;DHT22;2719;53.624;9.786;2022-12-07T12:15:47;5.40;99.90
5392;DHT22;2719;53.624;9.786;2022-12-07T12:18:39;5.40;99.90
5392;DHT22;2719;53.624;9.786;2022-12-07T12:21:10;5.40;99.90
5392;DHT22;2719;53.624;9.786;2022-12-07T12:23:43;5.50;99.90
5392;DHT22;2719;53.624;9.786;2022-12-07T12:26:16;5.50;99.90
5392;DHT22;2719;53.624;9.786;2022-12-07T12:28:52;5.60;99.90
5392;DHT22;2719;53.624;9.786;2022-12-07T12:31:32;5.60;99.90
5392;DHT22;2719;53.624;9.786;2022-12-07T12:34:03;5.50;99.90
5392;DHT22;2719;53.624;9.786;2022-12-07T12:36:45;5.70;99.90
5392;DHT22;2719;53.624;9.786;2022-12-07T12:39:14;5.80;99.90
5392;DHT22;2719;53.624;9.786;2022-12-07T12:50:32;5.80;99.90
5392;DHT22;2719;53.624;9.786;2022-12-07T12:53:05;5.90;99.90
5392;DHT22;2719;53.624;9.786;2022-12-07T12:58:43;6.00;99.90
5392;DHT22;2719;53.624;9.786;2022-12-07T13:01:40;6.10;99.90
5392;DHT22;2719;53.624;9.786;2022-12-07T13:04:20;6.00;99.90
5392;DHT22;2719;53.624;9.786;2022-12-07T13:06:48;5.90;99.90
5392;DHT22;2719;53.624;9.786;2022-12-07T13:09:21;6.00;99.90
5392;DHT22;2719;53.624;9.786;2022-12-07T13:11:50;5.90;99.90
5392;DHT22;2719;53.624;9.786;2022-12-07T13:14:44;6.00;99.90
5392;DHT22;2719;53.624;9.786;2022-12-07T13:20:51;6.10;99.90
5392;DHT22;2719;53.624;9.786;2022-12-07T13:23:20;6.10;99.90
5392;DHT22;2719;53.624;9.786;2022-12-07T13:25:54;6.10;99.90
5392;DHT22;2719;53.624;9.786;2022-12-07T13:28:23;6.10;99.90
5392;DHT22;2719;53.624;9.786;2022-12-07T13:31:17;6.10;99.90
5392;DHT22;2719;53.624;9.786;2022-12-07T13:33:47;6.10;99.90
5392;DHT22;2719;53.624;9.786;2022-12-07T13:36:22;6.10;99.90
5392;DHT22;2719;53.624;9.786;2022-12-07T13:38:52;6.10;99.90
5392;DHT22;2719;53.624;9.786;2022-12-07T13:41:21;6.10;99.90
5392;DHT22;2719;53.624;9.786;2022-12-07T13:43:51;6.10;99.90
5392;DHT22;2719;53.624;9.786;2022-12-07T13:46:24;6.10;99.90
5392;DHT22;2719;53.624;9.786;2022-12-07T13:48:52;6.00;99.90
5392;DHT22;2719;53.624;9.786;2022-12-07T13:51:22;5.90;99.90
5392;DHT22;2719;53.624;9.786;2022-12-07T13:53:51;5.90;99.90
5392;DHT22;2719;53.624;9.786;2022-12-07T13:56:22;5.90;99.90
5392;DHT22;2719;53.624;9.786;2022-12-07T13:58:49;5.90;99.90
5392;DHT22;2719;53.624;9.786;2022-12-07T14:01:15;5.90;99.90
5392;DHT22;2719;53.624;9.786;2022-12-07T14:03:45;5.90;99.90
5392;DHT22;2719;53.624;9.786;2022-12-07T14:06:23;5.90;99.90
5392;DHT22;2719;53.624;9.786;2022-12-07T14:09:06;5.90;99.90
5392;DHT22;2719;53.624;9.786;2022-12-07T14:11:33;5.80;99.90
5392;DHT22;2719;53.624;9.786;2022-12-07T14:14:02;5.70;99.90
5392;DHT22;2719;53.624;9.786;2022-12-07T14:16:32;5.60;99.90
5392;DHT22;2719;53.624;9.786;2022-12-07T14:19:03;5.60;99.90
5392;DHT22;2719;53.624;9.786;2022-12-07T14:21:31;5.60;99.90
5392;DHT22;2719;53.624;9.786;2022-12-07T14:24:25;5.60;99.90
5392;DHT22;2719;53.624;9.786;2022-12-07T14:26:51;5.60;99.90
5392;DHT22;2719;53.624;9.786;2022-12-07T14:29:29;5.60;99.90
5392;DHT22;2719;53.624;9.786;2022-12-07T14:31:57;5.60;99.90
5392;DHT22;2719;53.624;9.786;2022-12-07T14:34:25;5.70;99.90
5392;DHT22;2719;53.624;9.786;2022-12-07T14:36:52;5.70;99.90
5392;DHT22;2719;53.624;9.786;2022-12-07T14:39:19;5.70;99.90
5392;DHT22;2719;53.624;9.786;2022-12-07T14:41:46;5.70;99.90
5392;DHT22;2719;53.624;9.786;2022-12-07T14:44:20;5.70;99.90
5392;DHT22;2719;53.624;9.786;2022-12-07T14:46:47;5.60;99.90
5392;DHT22;2719;53.624;9.786;2022-12-07T14:49:14;5.50;99.90
5392;DHT22;2719;53.624;9.786;2022-12-07T14:51:43;5.50;99.90
5392;DHT22;2719;53.624;9.786;2022-12-07T14:54:15;5.50;99.90
5392;DHT22;2719;53.624;9.786;2022-12-07T14:56:42;5.50;99.90
5392;DHT22;2719;53.624;9.786;2022-12-07T14:59:09;5.40;99.90
5392;DHT22;2719;53.624;9.786;2022-12-07T15:01:36;5.40;99.90
5392;DHT22;2719;53.624;9.786;2022-12-07T15:04:04;5.40;99.90
5392;DHT22;2719;53.624;9.786;2022-12-07T15:06:31;5.40;99.90
5392;DHT22;2719;53.624;9.786;2022-12-07T15:08:59;5.40;99.90
5392;DHT22;2719;53.624;9.786;2022-12-07T15:11:25;5.50;99.90
5392;DHT22;2719;53.624;9.786;2022-12-07T15:13:52;5.50;99.90
5392;DHT22;2719;53.624;9.786;2022-12-07T15:16:34;5.40;99.90
5392;DHT22;2719;53.624;9.786;2022-12-07T15:19:01;5.40;99.90
5392;DHT22;2719;53.624;9.786;2022-12-07T15:21:28;5.50;99.90
5392;DHT22;2719;53.624;9.786;2022-12-07T15:23:55;5.40;99.90
5392;DHT22;2719;53.624;9.786;2022-12-07T15:26:23;5.50;99.90
5392;DHT22;2719;53.624;9.786;2022-12-07T15:28:52;5.40;99.90
5392;DHT22;2719;53.624;9.786;2022-12-07T15:31:18;5.40;99.90
5392;DHT22;2719;53.624;9.786;2022-12-07T15:33:45;5.40;99.90
5392;DHT22;2719;53.624;9.786;2022-12-07T15:36:19;5.40;99.90
5392;DHT22;2719;53.624;9.786;2022-12-07T15:38:46;5.30;99.90
5392;DHT22;2719;53.624;9.786;2022-12-07T15:41:13;5.30;99.90
5392;DHT22;2719;53.624;9.786;2022-12-07T15:43:41;5.30;99.90
5392;DHT22;2719;53.624;9.786;2022-12-07T15:46:29;5.30;99.90
5392;DHT22;2719;53.624;9.786;2022-12-07T15:48:56;5.20;99.90
5392;DHT22;2719;53.624;9.786;2022-12-07T15:51:23;5.20;99.90
5392;DHT22;2719;53.624;9.786;2022-12-07T15:53:49;5.20;99.90
5392;DHT22;2719;53.624;9.786;2022-12-07T15:56:16;5.30;99.90
5392;DHT22;2719;53.624;9.786;2022-12-07T15:58:44;5.30;99.90
5392;DHT22;2719;53.624;9.786;2022-12-07T16:01:12;5.20;99.90
5392;DHT22;2719;53.624;9.786;2022-12-07T16:03:39;5.20;99.90
5392;DHT22;2719;53.624;9.786;2022-12-07T16:06:06;5.20;99.90
5392;DHT22;2719;53.624;9.786;2022-12-07T16:08:33;5.20;99.90
5392;DHT22;2719;53.624;9.786;2022-12-07T16:10:59;5.20;99.90
5392;DHT22;2719;53.624;9.786;2022-12-07T16:13:26;5.10;99.90
5392;DHT22;2719;53.624;9.786;2022-12-07T16:15:54;5.00;99.90
5392;DHT22;2719;53.624;9.786;2022-12-07T16:18:21;5.00;99.90
5392;DHT22;2719;53.624;9.786;2022-12-07T16:20:48;4.90;99.90
5392;DHT22;2719;53.624;9.786;2022-12-07T16:23:15;4.90;99.90
5392;DHT22;2719;53.624;9.786;2022-12-07T16:25:42;4.90;99.90
5392;DHT22;2719;53.624;9.786;2022-12-07T16:28:08;4.80;99.90
5392;DHT22;2719;53.624;9.786;2022-12-07T16:30:35;4.80;99.90
5392;DHT22;2719;53.624;9.786;2022-12-07T16:33:03;4.80;99.90
5392;DHT22;2719;53.624;9.786;2022-12-07T16:35:29;4.80;99.90
5392;DHT22;2719;53.624;9.786;2022-12-07T16:37:56;4.80;99.90
5392;DHT22;2719;53.624;9.786;2022-12-07T16:40:23;4.70;99.90
5392;DHT22;2719;53.624;9.786;2022-12-07T16:42:49;4.60;99.90
5392;DHT22;2719;53.624;9.786;2022-12-07T16:45:17;4.60;99.90
5392;DHT22;2719;53.624;9.786;2022-12-07T16:47:44;4.60;99.90
5392;DHT22;2719;53.624;9.786;2022-12-07T16:50:12;4.60;99.90
5392;DHT22;2719;53.624;9.786;2022-12-07T16:52:38;4.60;99.90